Thu 23rd May 20:30 pm
   Condicions actuals
Majoritàriament Clar



Pressió
1017.95 (hPa) - 30.06 (inHG)
Visibilitat:

9.7 (km) - 6.0 (miles)
Base de Núvols

Clar (Mts) - Clar (Feets)
   Temperatura
18  °C
Temperatura
12  °C
P.ros.
68  %
 Humitat
   Velocitat del Vent
13  km/h
7  kts
8  mph
3.6  m/s
   Vent Direcció
N
45°
E
90°
135°
S
180°
225°
O
270°
315°
 120°

Est S
Est
   Airport Data
LELL
Sabadell Airfield
Metar :LELL 231830Z 12007KT 090V150 CAVOK 18/12 Q1018
Thu 23rd May 20:30 pm
   Raw Metar Info
Raw METAR is the most common format in the world for the transmission of observational weather data. It is highly standardized through the International Civil Aviation Organization (ICAO), which allows it to be understood throughout most of the world.
   API Info
Data Provided by
https://www.checkwx.com/weather/LELL

Aviation Weather providing METAR, TAF, AIRMET, SIGMET and OUTLOOK Weather Reports
   © Info
CSS/SVG/PHP scripts were developed by weather34.com for use in the weather34 template © 2015-2024

Guide Info provided by Metar-Wikipedia